Time;durP1;ratioP1;P1;durP2;ratioP2;P2;SDS_P1;SDS_P2;PMS_P1;PMS_P2;Temp;Humidity;BMP_temperature;BMP_pressure;BME280_temperature;BME280_humidity;BME280_pressure;Samples;Min_cycle;Max_cycle;Signal;HPM_P1;HPM_P2
2023/03/18 14:51:20;;;;;;;1.63;0.40;;;18.30;99.90;;;;;;21168926;27;20568;-70
2023/03/18 15:01:35;;;;;;;0.53;0.33;;;18.20;99.90;;;;;;21064518;28;20753;-70
2023/03/18 15:11:38;;;;;;;1.27;0.30;;;;;;;;;;21055408;28;20745;-70
2023/03/18 15:21:40;;;;;;;2.07;0.37;;;;;;;;;;21096092;28;20220;-70
2023/03/18 15:31:43;;;;;;;0.50;0.30;;;;;;;;;;21072226;28;20702;-70
2023/03/18 15:41:45;;;;;;;0.57;0.37;;;;;;;;;;21092131;28;20220;-71
2023/03/18 15:51:48;;;;;;;0.93;0.40;;;;;;;;;;21097416;28;20228;-70
2023/03/18 16:01:51;;;;;;;0.80;0.30;;;;;;;;;;21044040;28;20242;-70
2023/03/18 16:12:09;;;;;;;1.40;0.57;;;;;;;;;;21040412;28;20695;-70
2023/03/18 16:22:13;;;;;;;1.13;0.40;;;;;;;;;;21055668;28;20226;-69
2023/03/18 16:32:15;;;;;;;4.23;1.00;;;;;;;;;;21038166;28;20213;-70
2023/03/18 16:42:17;;;;;;;3.03;0.60;;;;;;;;;;21000195;22;20228;-69
2023/03/18 16:52:19;;;;;;;0.80;0.40;;;;;;;;;;20960195;28;20318;-70
2023/03/18 17:02:27;;;;;;;1.67;0.60;;;;;;;;;;20965229;28;20239;-71
2023/03/18 17:12:29;;;;;;;4.17;0.60;;;;;;;;;;20995584;28;20639;-72
2023/03/18 17:22:32;;;;;;;1.80;0.40;;;;;;;;;;21007161;28;20373;-71
2023/03/18 17:32:34;;;;;;;0.90;0.50;;;;;;;;;;20955642;28;20866;-72
2023/03/18 17:42:36;;;;;;;2.00;0.70;;;;;;;;;;20937081;28;20320;-72
2023/03/18 17:52:38;;;;;;;1.17;0.50;;;;;;;;;;20951839;28;20376;-71
2023/03/18 18:02:40;;;;;;;1.00;0.50;;;;;;;;;;20990366;28;20213;-71
2023/03/18 18:12:43;;;;;;;1.37;0.63;;;;;;;;;;20923149;28;20217;-70
2023/03/18 18:22:47;;;;;;;2.27;0.80;;;;;;;;;;20905969;28;20212;-72
2023/03/18 18:32:49;;;;;;;1.40;0.67;;;;;;;;;;20947374;28;20995;-72
2023/03/18 18:42:51;;;;;;;5.07;0.77;;;;;;;;;;20928573;28;20716;-72
2023/03/18 18:52:54;;;;;;;1.43;0.70;;;;;;;;;;20945966;28;20305;-72
2023/03/18 19:02:56;;;;;;;2.10;0.83;;;;;;;;;;20957595;28;20287;-72
2023/03/18 19:12:58;;;;;;;3.77;1.93;;;;;;;;;;20941995;28;20220;-72
2023/03/18 19:23:00;;;;;;;4.07;1.53;;;;;;;;;;20930195;28;20201;-72
2023/03/18 19:33:08;;;;;;;2.13;1.03;;;;;;;;;;20951225;28;21281;-72
2023/03/18 19:43:20;;;;;;;5.90;4.63;;;15.10;99.90;;;;;;20962050;28;20209;-71
2023/03/18 19:53:26;;;;;;;2.13;1.47;;;15.00;99.90;;;;;;20929425;28;20749;-71
2023/03/18 20:03:29;;;;;;;1.73;0.87;;;;;;;;;;20923376;28;20217;-72
2023/03/18 20:13:31;;;;;;;3.10;1.10;;;;;;;;;;20936234;28;20649;-71
2023/03/18 20:23:33;;;;;;;3.47;1.20;;;;;;;;;;20915332;28;20213;-71
2023/03/18 20:33:34;;;;;;;4.63;1.50;;;;;;;;;;20973599;28;20295;-71
2023/03/18 20:43:37;;;;;;;2.60;1.50;;;;;;;;;;20984595;28;20233;-71
2023/03/18 20:53:39;;;;;;;1.80;1.20;;;;;;;;;;21031831;28;20228;-71
2023/03/18 21:03:41;;;;;;;2.40;1.40;;;;;;;;;;21039027;28;20213;-71
2023/03/18 21:13:43;;;;;;;3.10;1.87;;;;;;;;;;21010205;28;20217;-71
2023/03/18 21:23:44;;;;;;;3.97;2.60;;;;;;;;;;21053753;28;20290;-71
2023/03/18 21:33:47;;;;;;;3.10;1.60;;;;;;;;;;21052846;28;20543;-71
2023/03/18 21:43:50;;;;;;;4.13;1.97;;;;;;;;;;21001021;28;20765;-71
2023/03/18 21:53:52;;;;;;;3.43;2.33;;;;;;;;;;21004650;28;20325;-71
2023/03/18 22:03:54;;;;;;;2.83;1.50;;;;;;;;;;21017690;28;20601;-71
2023/03/18 22:13:56;;;;;;;1.77;1.10;;;;;;;;;;21016115;28;20291;-71
2023/03/18 22:23:59;;;;;;;2.30;1.40;;;;;;;;;;21049128;28;20270;-71
2023/03/18 22:34:00;;;;;;;1.87;0.80;;;;;;;;;;21015751;28;20690;-72
2023/03/18 22:44:02;;;;;;;2.23;1.03;;;;;;;;;;21001916;28;20289;-71
2023/03/18 22:54:04;;;;;;;2.50;1.50;;;;;;;;;;21001465;28;20220;-71
2023/03/18 23:04:10;;;;;;;1.97;1.03;;;13.60;99.90;;;;;;21016021;28;20825;-71
2023/03/18 23:14:12;;;;;;;1.83;0.83;;;;;;;;;;21030339;28;20844;-71
2023/03/18 23:24:14;;;;;;;2.30;1.07;;;;;;;;;;21029543;28;20262;-71
2023/03/18 23:34:16;;;;;;;2.03;0.90;;;;;;;;;;20978519;28;20316;-71
2023/03/18 23:44:18;;;;;;;2.93;1.30;;;;;;;;;;20973100;28;20220;-71
2023/03/18 23:54:20;;;;;;;1.73;1.27;;;;;;;;;;20994902;28;20284;-71
